METAR Data
IDs: Format: Raw Decoded Include TAF

Data at: 0938 UTC 18 Jan 2019

PASI 180853Z 00000KT 10SM SCT250 01/M03 A2950 RMK RAE13 SLP990 P0000 60000 T00061028 400441006 53005 $ VIA AUTODIAL
PASI 180753Z 13003KT 10SM -RA SCT250 01/M03 A2949 RMK RAB52 SLP986 P0000 T00061028 $ VIA AUTODIAL
PASI 180653Z 34007KT 10SM SCT250 03/M02 A2949 RMK SLP986 T00331017 $ VIA AUTODIAL
PASI 180553Z 34006KT 10SM BKN250 03/M02 A2949 RMK SLP985 T00281022 10044 20017 55000 $ VIA AUTODIAL
PASI 180453Z 34005KT 10SM BKN250 02/M01 A2948 RMK SLP983 T00221011 $ VIA AUTODIAL
PASI 180353Z 34003KT 10SM BKN250 02/M01 A2949 RMK SLP984 T00221011 $ VIA AUTODIAL
PASI 180253Z COR 34003KT 10SM BKN250 03/M01 A2949 RMK AO2 SLP985 T00281011 55003 $
PASI 180153Z 00000KT 10SM BKN250 03/M01 A2949 RMK AO2 SLP985 T00281011 $
PASI 180053Z 33008KT 10SM BKN250 04/M01 A2949 RMK AO2 SLP985 T00441006 $
PASI 172353Z 33006KT 10SM BKN250 04/M01 A2950 RMK AO2 SLP989 T00441011 10044 20000 55001 $
PASI 172253Z 34003KT 10SM BKN250 04/M01 A2950 RMK AO2 SLP988 T00391006 $
PASI 172153Z 00000KT 10SM FEW250 03/M01 A2950 RMK AO2 SLP990 T00331006 $
PASI 172053Z 00000KT 10SM FEW250 03/M01 A2950 RMK AO2 SLP989 T00331011 58001 $
PASI 171953Z 00000KT 10SM FEW250 03/M01 A2951 RMK AO2 SLP992 T00281011 $
PASI 171853Z 33003KT 10SM FEW250 03/M01 A2951 RMK AO2 SLP994 T00281011 $
PASI 171753Z 32003KT 10SM FEW250 02/M01 A2951 RMK AO2 SLP991 T00171006 10028 21006 56010 $
PASI 171653Z 35004KT 10SM FEW250 00/M02 A2951 RMK AO2 SLP993 T00001017 $
PASI 171553Z 00000KT 10SM CLR 01/M01 A2953 RMK AO2 SLP998 T00111011 $
PASI 171453Z 10004KT 10SM CLR 01/00 A2954 RMK AO2 SLP001 T00110000 57013 $
PASI 171353Z 08004KT 10SM CLR 01/M01 A2955 RMK AO2 SLP007 T00061011 $
PASI 171253Z 31004KT 10SM CLR 02/M01 A2956 RMK AO2 SLP008 T00221006 $
PASI 171153Z 11003KT 10SM CLR 02/M01 A2957 RMK AO2 SLP014 60000 T00171011 10044 20006 56018 $
PASI 171053Z 34006KT 10SM CLR 03/00 A2959 RMK AO2 SLP020 T00280000 $
PASI 170953Z 03003KT 10SM SCT250 01/M01 A2961 RMK AO2 SLP026 T00111006 $
PASI 170853Z 35003KT 10SM SCT250 01/M01 A2963 RMK AO2 SLP032 60000 T00111006 400720011 58010 $
PASI 170753Z 11003KT 10SM SCT250 01/00 A2964 RMK AO2 SLP037 T00110000 $
PASI 170653Z 00000KT 10SM SCT250 02/00 A2965 RMK AO2 RAB47E50 SLP041 P0000 T00170000 $
PASI 170553Z 09003KT 10SM SCT250 03/01 A2966 RMK AO2 SLP043 T00280006 10067 20022 56003 $
PASI 170453Z 00000KT 10SM SCT250 03/00 A2966 RMK AO2 SLP043 T00280000 $
PASI 170353Z 00000KT 10SM SCT250 03/00 A2966 RMK AO2 SLP044 T00330000 $
PASI 170253Z 33004KT 10SM SCT250 04/01 A2967 RMK AO2 SLP046 T00440011 58008 $
PASI 170153Z 32003KT 10SM SCT250 05/03 A2968 RMK AO2 SLP050 T00500028 $
PASI 170053Z 33005KT 10SM SCT250 06/02 A2969 RMK AO2 SLP054 T00560022 $
PASI 162353Z 33009KT 10SM FEW250 07/03 A2969 RMK AO2 SLP055 T00670028 10072 20017 56010 $
PASI 162253Z 33004KT 10SM FEW250 07/02 A2970 RMK AO2 SLP057 T00720022 $
PASI 162153Z 34006KT 10SM FEW250 07/02 A2971 RMK AO2 SLP060 T00670022 $